Star Epsilon — V7NZ7 — position and weather

sailwx.info

Track history (hours):
 
Tides and Currents Weather Stations Pressure Air Temp Water Temp Dewpoint Dewpoint Depression Visibility Wind Speed Wind Dir Waves Ship Positions

Star Epsilon

Last reported at 2015-May-24 02:33 UTC. Time now 2015-May-24 03:10 UTC.
Position N 46°51' E 031°59'.

Length 189 m; draft 6.3 m.

Type: Ship. MMSI: 538003043.

Date/timePositionNaut miles runAvg speedWind from/ knotsBaromVisibWave heightAir tempDewpointWater temp
2015-May-24 02:33N 46°51' E 031°59'0 0.0
2015-May-24 01:33N 46°51' E 031°59'0 0.0
2015-May-24 00:33N 46°51' E 031°59'0 0.0
2015-May-23 23:33N 46°51' E 031°59'0 0.0
2015-May-23 22:33N 46°51' E 031°59'0 0.0
2015-May-23 21:33N 46°51' E 031°59'0 0.0
2015-May-23 20:33N 46°51' E 031°59'0 0.0
2015-May-23 19:33N 46°51' E 031°59'0 0.0
2015-May-23 18:33N 46°51' E 031°59'0 0.0
2015-May-23 17:33N 46°51' E 031°59'0 0.0
2015-May-23 16:33N 46°51' E 031°59'0 0.0
2015-May-23 15:33N 46°51' E 031°59'1 0.6
2015-May-23 14:33N 46°51' E 031°58'7 6.5
2015-May-23 13:33N 46°46' E 031°54'11 9.4
2015-May-23 12:26N 46°36' E 031°48'1112.4
2015-May-23 11:31N 46°35' E 031°32'23 4.4
2015-May-23 06:18N 46°24' E 031°02'1 0.5
2015-May-23 04:24N 46°23' E 031°02'0 0.0
2015-May-23 03:24N 46°23' E 031°02'0 0.0
2015-May-22 21:06N 46°24' E 031°02'0 0.0
2015-May-22 02:30N 46°23' E 031°02'0 0.1
2015-May-22 01:30N 46°23' E 031°02'0 0.0
2015-May-21 21:30N 46°23' E 031°02'0 0.0
2015-May-21 20:30N 46°23' E 031°02'0 0.0
2015-May-21 00:09N 46°23' E 031°02'0 0.0
2015-May-20 06:12N 46°23' E 031°02'0 0.0
2015-May-20 05:33N 46°24' E 031°02'0 0.0
2015-May-20 04:33N 46°23' E 031°02'0 0.0
2015-May-20 03:33N 46°24' E 031°02'0 0.0
2015-May-20 02:33N 46°24' E 031°02'0 0.0
2015-May-20 01:30N 46°24' E 031°02'0 0.0
2015-May-20 00:33N 46°24' E 031°02'0 0.0
2015-May-19 23:33N 46°24' E 031°02'0 0.0
2015-May-19 22:30N 46°24' E 031°02'0 0.0
2015-May-19 21:30N 46°24' E 031°02'0 0.0
2015-May-19 20:33N 46°24' E 031°02'0 0.1
2015-May-19 18:24N 46°23' E 031°02'0 0.0
2015-May-19 17:30N 46°23' E 031°02'0 0.0
2015-May-19 16:29N 46°23' E 031°02'0 0.1
2015-May-19 15:33N 46°24' E 031°02'0 0.0
2015-May-19 14:33N 46°24' E 031°02'0 0.0
2015-May-19 13:33N 46°24' E 031°02'0 0.0
2015-May-19 12:31N 46°24' E 031°02'0 0.0
2015-May-19 11:30N 46°24' E 031°02'0 0.0
2015-May-19 10:33N 46°24' E 031°02'0 0.0
2015-May-19 09:31N 46°24' E 031°02'0 0.0
2015-May-19 06:30N 46°24' E 031°02'0 0.1
2015-May-19 05:33N 46°24' E 031°02'0 0.0
2015-May-19 02:32N 46°24' E 031°02'0 0.0
2015-May-19 01:33N 46°24' E 031°02'0 0.0
2015-May-19 00:34N 46°24' E 031°02'0 0.0
2015-May-18 23:33N 46°24' E 031°02'0 0.0
2015-May-18 22:33N 46°24' E 031°02'0 0.0
2015-May-18 21:33N 46°24' E 031°02'0 0.0
2015-May-18 20:33N 46°24' E 031°02'0 0.0
2015-May-18 19:33N 46°24' E 031°02'0 0.0
2015-May-18 18:33N 46°24' E 031°02'0 0.0
2015-May-18 17:33N 46°24' E 031°02'0 0.0
2015-May-18 05:20N 46°23' E 031°02'0 0.1
2015-May-18 04:19N 46°23' E 031°02'0 0.0
2015-May-18 02:30N 46°23' E 031°02'0 0.1
2015-May-18 01:33N 46°23' E 031°02'0 0.0
2015-May-17 19:15N 46°24' E 031°02'0 0.0
2015-May-17 18:32N 46°24' E 031°02'0 0.0
2015-May-17 17:22N 46°24' E 031°02'0 0.0
2015-May-17 16:34N 46°24' E 031°02'0 0.0
2015-May-17 15:34N 46°24' E 031°02'0 0.0
2015-May-17 14:34N 46°24' E 031°02'0 0.0
2015-May-17 13:33N 46°24' E 031°02'0 0.0
2015-May-17 00:33N 46°23' E 031°02'0 0.0
2015-May-16 23:33N 46°23' E 031°02'0 0.0
2015-May-16 04:30N 46°24' E 031°02'0 0.0
2015-May-16 01:33N 46°23' E 031°02'0 0.0
2015-May-16 00:34N 46°23' E 031°02'0 0.0
2015-May-15 23:34N 46°23' E 031°02'0 0.0
2015-May-15 22:33N 46°23' E 031°02'0 0.0
2015-May-15 21:34N 46°23' E 031°02'0 0.0
2015-May-15 20:31N 46°23' E 031°02'0 0.0
2015-May-15 19:34N 46°24' E 031°02'0 0.0
2015-May-15 18:34N 46°24' E 031°02'0 0.0
2015-May-15 17:33N 46°24' E 031°02'0 0.0
2015-May-15 16:24N 46°24' E 031°02'8 0.4
2015-May-14 17:34N 46°15' E 031°05'0 0.0
2015-May-14 16:32N 46°15' E 031°05'0 0.0
2015-May-14 15:33N 46°15' E 031°05'0 0.0
2015-May-14 14:34N 46°15' E 031°05'0 0.0
2015-May-14 13:33N 46°15' E 031°05'0 0.0
2015-May-14 12:34N 46°15' E 031°05'0 0.1
2015-May-14 11:29N 46°15' E 031°04'0 0.0
2015-May-14 10:33N 46°15' E 031°04'0 0.0
2015-May-14 09:34N 46°15' E 031°04'0 0.1
2015-May-14 08:19N 46°15' E 031°04'0 0.1
2015-May-14 06:34N 46°15' E 031°05'  
Track history (hours):
 
Tides and Currents Weather Stations Pressure Air Temp Water Temp Dewpoint Dewpoint Depression Visibility Wind Speed Wind Dir Waves Ship Positions

Star Epsilon

Last reported at 2015-May-24 02:33 UTC. Time now 2015-May-24 03:10 UTC.
Position N 46°51' E 031°59'.

Length 189 m; draft 6.3 m.

Type: Ship. MMSI: 538003043.

Date/timePositionNaut miles runAvg speedWind from/ knotsBaromVisibWave heightAir tempDewpointWater temp
2015-May-24 02:33N 46°51' E 031°59'0 0.0
2015-May-24 01:33N 46°51' E 031°59'0 0.0
2015-May-24 00:33N 46°51' E 031°59'0 0.0
2015-May-23 23:33N 46°51' E 031°59'0 0.0
2015-May-23 22:33N 46°51' E 031°59'0 0.0
2015-May-23 21:33N 46°51' E 031°59'0 0.0
2015-May-23 20:33N 46°51' E 031°59'0 0.0
2015-May-23 19:33N 46°51' E 031°59'0 0.0
2015-May-23 18:33N 46°51' E 031°59'0 0.0
2015-May-23 17:33N 46°51' E 031°59'0 0.0
2015-May-23 16:33N 46°51' E 031°59'0 0.0
2015-May-23 15:33N 46°51' E 031°59'1 0.6
2015-May-23 14:33N 46°51' E 031°58'7 6.5
2015-May-23 13:33N 46°46' E 031°54'11 9.4
2015-May-23 12:26N 46°36' E 031°48'1112.4
2015-May-23 11:31N 46°35' E 031°32'23 4.4
2015-May-23 06:18N 46°24' E 031°02'1 0.5
2015-May-23 04:24N 46°23' E 031°02'0 0.0
2015-May-23 03:24N 46°23' E 031°02'0 0.0
2015-May-22 21:06N 46°24' E 031°02'0 0.0
2015-May-22 02:30N 46°23' E 031°02'0 0.1
2015-May-22 01:30N 46°23' E 031°02'0 0.0
2015-May-21 21:30N 46°23' E 031°02'0 0.0
2015-May-21 20:30N 46°23' E 031°02'0 0.0
2015-May-21 00:09N 46°23' E 031°02'0 0.0
2015-May-20 06:12N 46°23' E 031°02'0 0.0
2015-May-20 05:33N 46°24' E 031°02'0 0.0
2015-May-20 04:33N 46°23' E 031°02'0 0.0
2015-May-20 03:33N 46°24' E 031°02'0 0.0
2015-May-20 02:33N 46°24' E 031°02'0 0.0
2015-May-20 01:30N 46°24' E 031°02'0 0.0
2015-May-20 00:33N 46°24' E 031°02'0 0.0
2015-May-19 23:33N 46°24' E 031°02'0 0.0
2015-May-19 22:30N 46°24' E 031°02'0 0.0
2015-May-19 21:30N 46°24' E 031°02'0 0.0
2015-May-19 20:33N 46°24' E 031°02'0 0.1
2015-May-19 18:24N 46°23' E 031°02'0 0.0
2015-May-19 17:30N 46°23' E 031°02'0 0.0
2015-May-19 16:29N 46°23' E 031°02'0 0.1
2015-May-19 15:33N 46°24' E 031°02'0 0.0
2015-May-19 14:33N 46°24' E 031°02'0 0.0
2015-May-19 13:33N 46°24' E 031°02'0 0.0
2015-May-19 12:31N 46°24' E 031°02'0 0.0
2015-May-19 11:30N 46°24' E 031°02'0 0.0
2015-May-19 10:33N 46°24' E 031°02'0 0.0
2015-May-19 09:31N 46°24' E 031°02'0 0.0
2015-May-19 06:30N 46°24' E 031°02'0 0.1
2015-May-19 05:33N 46°24' E 031°02'0 0.0
2015-May-19 02:32N 46°24' E 031°02'0 0.0
2015-May-19 01:33N 46°24' E 031°02'0 0.0
2015-May-19 00:34N 46°24' E 031°02'0 0.0
2015-May-18 23:33N 46°24' E 031°02'0 0.0
2015-May-18 22:33N 46°24' E 031°02'0 0.0
2015-May-18 21:33N 46°24' E 031°02'0 0.0
2015-May-18 20:33N 46°24' E 031°02'0 0.0
2015-May-18 19:33N 46°24' E 031°02'0 0.0
2015-May-18 18:33N 46°24' E 031°02'0 0.0
2015-May-18 17:33N 46°24' E 031°02'0 0.0
2015-May-18 05:20N 46°23' E 031°02'0 0.1
2015-May-18 04:19N 46°23' E 031°02'0 0.0
2015-May-18 02:30N 46°23' E 031°02'0 0.1
2015-May-18 01:33N 46°23' E 031°02'0 0.0
2015-May-17 19:15N 46°24' E 031°02'0 0.0
2015-May-17 18:32N 46°24' E 031°02'0 0.0
2015-May-17 17:22N 46°24' E 031°02'0 0.0
2015-May-17 16:34N 46°24' E 031°02'0 0.0
2015-May-17 15:34N 46°24' E 031°02'0 0.0
2015-May-17 14:34N 46°24' E 031°02'0 0.0
2015-May-17 13:33N 46°24' E 031°02'0 0.0
2015-May-17 00:33N 46°23' E 031°02'0 0.0
2015-May-16 23:33N 46°23' E 031°02'0 0.0
2015-May-16 04:30N 46°24' E 031°02'0 0.0
2015-May-16 01:33N 46°23' E 031°02'0 0.0
2015-May-16 00:34N 46°23' E 031°02'0 0.0
2015-May-15 23:34N 46°23' E 031°02'0 0.0
2015-May-15 22:33N 46°23' E 031°02'0 0.0
2015-May-15 21:34N 46°23' E 031°02'0 0.0
2015-May-15 20:31N 46°23' E 031°02'0 0.0
2015-May-15 19:34N 46°24' E 031°02'0 0.0
2015-May-15 18:34N 46°24' E 031°02'0 0.0
2015-May-15 17:33N 46°24' E 031°02'0 0.0
2015-May-15 16:24N 46°24' E 031°02'8 0.4
2015-May-14 17:34N 46°15' E 031°05'0 0.0
2015-May-14 16:32N 46°15' E 031°05'0 0.0
2015-May-14 15:33N 46°15' E 031°05'0 0.0
2015-May-14 14:34N 46°15' E 031°05'0 0.0
2015-May-14 13:33N 46°15' E 031°05'0 0.0
2015-May-14 12:34N 46°15' E 031°05'0 0.1
2015-May-14 11:29N 46°15' E 031°04'0 0.0
2015-May-14 10:33N 46°15' E 031°04'0 0.0
2015-May-14 09:34N 46°15' E 031°04'0 0.1
2015-May-14 08:19N 46°15' E 031°04'0 0.1
2015-May-14 06:34N 46°15' E 031°05'  

Dump ship's entire track history